createdAt,value
2023-05-08T00:00:40.754Z,9.30
2023-05-08T00:03:38.584Z,9.30
2023-05-08T00:06:36.583Z,9.30
2023-05-08T00:09:34.042Z,9.31
2023-05-08T00:12:31.724Z,9.33
2023-05-08T00:15:29.141Z,9.36
2023-05-08T00:18:26.930Z,9.36
2023-05-08T00:21:24.859Z,9.36
2023-05-08T00:24:22.566Z,9.37
2023-05-08T00:27:19.996Z,9.39
2023-05-08T00:30:17.560Z,9.40
2023-05-08T00:33:15.270Z,9.42
2023-05-08T00:36:15.753Z,9.44
2023-05-08T00:39:13.467Z,9.46
2023-05-08T00:42:10.876Z,9.47
2023-05-08T00:45:08.584Z,9.46
2023-05-08T00:48:06.278Z,9.47
2023-05-08T00:51:03.687Z,9.46
2023-05-08T00:54:01.477Z,9.45
2023-05-08T00:56:59.876Z,9.45
2023-05-08T00:59:57.599Z,9.43
2023-05-08T01:02:55.350Z,9.43
2023-05-08T01:05:52.955Z,9.42
2023-05-08T01:08:50.627Z,9.41
2023-05-08T01:11:48.064Z,9.39
2023-05-08T01:14:45.873Z,9.38
2023-05-08T01:17:43.400Z,9.38
2023-05-08T01:20:41.177Z,9.37
2023-05-08T01:23:38.850Z,9.35
2023-05-08T01:26:36.427Z,9.33
2023-05-08T01:29:34.278Z,9.31
2023-05-08T01:32:32.021Z,9.30
2023-05-08T01:35:29.657Z,9.31
2023-05-08T01:38:27.026Z,9.28
2023-05-08T01:41:24.921Z,9.27
2023-05-08T01:44:22.394Z,9.23
2023-05-08T01:47:19.993Z,9.23
2023-05-08T01:50:17.731Z,9.21
2023-05-08T01:53:15.164Z,9.17
2023-05-08T01:56:12.794Z,9.14
2023-05-08T01:59:10.166Z,9.15
2023-05-08T02:02:07.893Z,9.15
2023-05-08T02:05:05.978Z,9.17
2023-05-08T02:08:03.625Z,9.18
2023-05-08T02:11:01.277Z,9.17
2023-05-08T02:13:59.063Z,9.17
2023-05-08T02:16:56.753Z,9.15
2023-05-08T02:19:54.176Z,9.14
2023-05-08T02:22:51.820Z,9.11
2023-05-08T02:25:49.252Z,9.08
2023-05-08T02:28:46.973Z,9.08
2023-05-08T02:31:44.659Z,9.07
2023-05-08T02:34:51.157Z,9.05
2023-05-08T02:37:57.062Z,9.05
2023-05-08T02:40:54.750Z,9.06
2023-05-08T02:43:53.080Z,9.08
2023-05-08T02:46:50.680Z,9.10
2023-05-08T02:49:48.249Z,9.09
2023-05-08T02:52:46.337Z,9.09
2023-05-08T02:55:43.793Z,9.10
2023-05-08T02:58:41.465Z,9.09
2023-05-08T03:01:39.241Z,9.09
2023-05-08T03:04:36.683Z,9.09
2023-05-08T03:07:34.350Z,9.11
2023-05-08T03:10:31.835Z,9.14
2023-05-08T03:13:30.173Z,9.15
2023-05-08T03:16:27.618Z,9.14
2023-05-08T03:19:25.326Z,9.14
2023-05-08T03:22:23.049Z,9.16
2023-05-08T03:25:20.603Z,9.15
2023-05-08T03:28:18.259Z,9.13
2023-05-08T03:31:16.821Z,9.09
2023-05-08T03:34:14.440Z,9.07
2023-05-08T03:37:12.171Z,9.03
2023-05-08T03:40:09.671Z,9.00
2023-05-08T03:43:07.954Z,9.00
2023-05-08T03:46:05.347Z,9.01
2023-05-08T03:49:03.036Z,8.98
2023-05-08T03:52:00.402Z,8.98
2023-05-08T03:54:58.067Z,8.96
2023-05-08T03:57:55.744Z,8.96
2023-05-08T04:00:53.190Z,8.97
2023-05-08T04:03:50.831Z,8.98
2023-05-08T04:06:50.505Z,8.97
2023-05-08T04:09:48.603Z,8.97
2023-05-08T04:12:46.057Z,8.96
2023-05-08T04:15:43.777Z,8.93
2023-05-08T04:18:41.508Z,8.92
2023-05-08T04:21:38.945Z,8.93
2023-05-08T04:24:36.666Z,8.94
2023-05-08T04:27:34.090Z,8.96
2023-05-08T04:30:31.679Z,8.97
2023-05-08T04:33:29.387Z,8.99
2023-05-08T04:36:29.548Z,9.00
2023-05-08T04:39:27.278Z,9.02
2023-05-08T04:42:26.066Z,9.07
2023-05-08T04:45:23.822Z,9.12
2023-05-08T04:48:21.206Z,9.17
2023-05-08T04:51:18.941Z,9.18
2023-05-08T04:54:16.703Z,9.21
2023-05-08T04:57:14.132Z,9.25
2023-05-08T05:00:13.155Z,9.27
2023-05-08T05:03:10.700Z,9.28
2023-05-08T05:06:08.681Z,9.33
2023-05-08T05:09:06.482Z,9.39
2023-05-08T05:12:04.043Z,9.48
2023-05-08T05:15:01.910Z,9.55
2023-05-08T05:17:59.351Z,9.61
2023-05-08T05:20:57.463Z,9.65
2023-05-08T05:23:54.835Z,9.70
2023-05-08T05:26:52.562Z,9.78
2023-05-08T05:29:50.203Z,9.85
2023-05-08T05:32:48.005Z,9.89
2023-05-08T05:35:45.759Z,9.96
2023-05-08T05:38:43.160Z,10.02
2023-05-08T05:41:42.528Z,10.07
2023-05-08T05:44:39.950Z,10.14
2023-05-08T05:47:37.567Z,10.22
2023-05-08T05:50:35.179Z,10.36
2023-05-08T05:53:32.610Z,10.51
2023-05-08T05:56:30.407Z,10.66
2023-05-08T05:59:27.766Z,10.73
2023-05-08T06:02:26.108Z,10.80
2023-05-08T06:05:24.082Z,10.91
2023-05-08T06:08:21.880Z,11.02
2023-05-08T06:11:19.473Z,11.06
2023-05-08T06:14:17.425Z,11.08
2023-05-08T06:17:14.933Z,11.10
2023-05-08T06:20:12.864Z,11.19
2023-05-08T06:23:10.347Z,11.24
2023-05-08T06:26:08.298Z,11.39
2023-05-08T06:29:05.676Z,11.56
2023-05-08T06:32:03.627Z,11.66
2023-05-08T06:35:01.059Z,11.79
2023-05-08T06:37:58.982Z,11.90
2023-05-08T06:40:56.763Z,11.99
2023-05-08T06:43:54.551Z,12.11
2023-05-08T06:46:52.466Z,12.30
2023-05-08T06:49:49.869Z,12.46
2023-05-08T06:52:47.612Z,12.51
2023-05-08T06:55:45.381Z,12.58
2023-05-08T06:58:46.284Z,12.65
2023-05-08T07:01:48.223Z,12.70
2023-05-08T07:04:46.026Z,12.65
2023-05-08T07:07:43.778Z,12.62
2023-05-08T07:10:41.738Z,12.69
2023-05-08T07:13:39.856Z,12.88
2023-05-08T07:16:37.890Z,13.04
2023-05-08T07:19:35.749Z,13.26
2023-05-08T07:22:33.545Z,13.65
2023-05-08T07:25:31.585Z,14.01
2023-05-08T07:28:28.975Z,14.34
2023-05-08T07:31:27.126Z,14.78
2023-05-08T07:34:24.605Z,15.21
2023-05-08T07:37:22.386Z,15.58
2023-05-08T07:40:20.279Z,15.94
2023-05-08T07:43:18.221Z,16.18
2023-05-08T07:46:16.275Z,16.38
2023-05-08T07:49:13.751Z,16.67
2023-05-08T07:52:11.841Z,16.83
2023-05-08T07:55:09.239Z,16.74
2023-05-08T07:58:07.175Z,16.67
2023-05-08T08:01:04.598Z,16.61
2023-05-08T08:04:02.483Z,16.57
2023-05-08T08:07:00.878Z,16.60
2023-05-08T08:09:58.677Z,16.63
2023-05-08T08:12:56.151Z,16.67
2023-05-08T08:15:54.166Z,16.45
2023-05-08T08:18:52.779Z,16.23
2023-05-08T08:21:50.642Z,16.24
2023-05-08T08:24:48.516Z,16.60
2023-05-08T08:27:46.409Z,16.69
2023-05-08T08:30:44.362Z,16.69
2023-05-08T08:33:45.711Z,16.76
2023-05-08T08:36:43.558Z,16.82
2023-05-08T08:39:41.472Z,16.76
2023-05-08T08:42:39.435Z,16.72
2023-05-08T08:45:37.271Z,16.76
2023-05-08T08:48:35.147Z,16.74
2023-05-08T08:51:32.858Z,16.77
2023-05-08T08:54:30.843Z,16.84
2023-05-08T08:57:28.287Z,17.00
2023-05-08T09:00:26.651Z,17.41
2023-05-08T09:03:24.899Z,17.48
2023-05-08T09:06:22.455Z,17.44
2023-05-08T09:09:20.378Z,17.42
2023-05-08T09:12:17.820Z,17.96
2023-05-08T09:15:16.094Z,18.52
2023-05-08T09:18:13.773Z,18.70
2023-05-08T09:21:11.836Z,19.20
2023-05-08T09:24:09.212Z,19.69
2023-05-08T09:27:07.186Z,20.08
2023-05-08T09:30:05.032Z,20.49
2023-05-08T09:33:02.549Z,20.88
2023-05-08T09:36:00.434Z,21.40
2023-05-08T09:38:58.296Z,21.90
2023-05-08T09:41:56.519Z,22.30
2023-05-08T09:44:54.363Z,22.64
2023-05-08T09:47:51.860Z,23.02
2023-05-08T09:50:49.859Z,23.27
2023-05-08T09:53:47.276Z,23.39
2023-05-08T09:56:45.215Z,23.13
2023-05-08T09:59:42.644Z,22.97
2023-05-08T10:02:40.582Z,22.98
2023-05-08T10:05:38.458Z,23.23
2023-05-08T10:08:36.251Z,23.50
2023-05-08T10:11:33.694Z,23.63
2023-05-08T10:14:31.507Z,23.53
2023-05-08T10:17:29.228Z,23.41
2023-05-08T10:20:27.166Z,23.28
2023-05-08T10:23:25.857Z,23.63
2023-05-08T10:26:26.891Z,23.92
2023-05-08T10:29:24.286Z,24.12
2023-05-08T10:32:22.099Z,24.07
2023-05-08T10:35:19.529Z,23.95
2023-05-08T10:38:17.360Z,24.31
2023-05-08T10:41:14.737Z,24.53
2023-05-08T10:44:12.974Z,24.56
2023-05-08T10:47:10.417Z,24.62
2023-05-08T10:50:08.206Z,24.77
2023-05-08T10:53:05.955Z,24.88
2023-05-08T10:56:03.909Z,25.17
2023-05-08T10:59:01.342Z,25.18
2023-05-08T11:01:59.245Z,25.07
2023-05-08T11:04:57.075Z,25.08
2023-05-08T11:07:54.488Z,25.09
2023-05-08T11:10:52.492Z,25.08
2023-05-08T11:13:49.891Z,25.01
2023-05-08T11:16:47.954Z,25.04
2023-05-08T11:19:45.793Z,25.00
2023-05-08T11:22:43.640Z,25.23
2023-05-08T11:25:41.274Z,25.32
2023-05-08T11:28:39.060Z,25.22
2023-05-08T11:31:36.701Z,25.41
2023-05-08T11:34:34.735Z,25.68
2023-05-08T11:37:34.238Z,25.66
2023-05-08T11:40:32.065Z,25.90
2023-05-08T11:43:29.500Z,25.92
2023-05-08T11:46:27.320Z,25.83
2023-05-08T11:49:29.132Z,25.87
2023-05-08T11:52:27.843Z,26.03
2023-05-08T11:55:25.640Z,25.90
2023-05-08T11:58:23.298Z,25.93
2023-05-08T12:01:21.172Z,25.96
2023-05-08T12:04:18.778Z,26.12
2023-05-08T12:07:17.330Z,26.33
2023-05-08T12:10:15.886Z,26.56
2023-05-08T12:13:14.020Z,26.57
2023-05-08T12:16:11.971Z,26.58
2023-05-08T12:19:09.358Z,26.71
2023-05-08T12:22:07.159Z,26.71
2023-05-08T12:25:04.578Z,26.74
2023-05-08T12:28:02.510Z,26.83
2023-05-08T12:30:59.952Z,26.72
2023-05-08T12:33:58.153Z,26.28
2023-05-08T12:36:55.621Z,26.10
2023-05-08T12:39:53.513Z,26.10
2023-05-08T12:42:51.868Z,26.07
2023-05-08T12:45:49.295Z,26.15
2023-05-08T12:48:47.091Z,26.23
2023-05-08T12:51:44.671Z,26.24
2023-05-08T12:54:42.740Z,26.17
2023-05-08T12:57:40.597Z,26.11
2023-05-08T13:00:38.190Z,26.03
2023-05-08T13:03:36.190Z,25.87
2023-05-08T13:06:33.653Z,25.87
2023-05-08T13:09:31.551Z,25.85
2023-05-08T13:12:29.358Z,25.87
2023-05-08T13:15:26.776Z,25.82
2023-05-08T13:18:24.559Z,25.77
2023-05-08T13:21:21.981Z,25.76
2023-05-08T13:24:19.883Z,25.60
2023-05-08T13:27:17.855Z,25.40
2023-05-08T13:30:16.284Z,25.43
2023-05-08T13:33:13.685Z,25.53
2023-05-08T13:36:11.574Z,25.55
2023-05-08T13:39:08.964Z,25.54
2023-05-08T13:42:06.799Z,25.55
2023-05-08T13:45:06.396Z,25.44
2023-05-08T13:48:04.262Z,25.33
2023-05-08T13:51:02.256Z,25.34
2023-05-08T13:53:59.688Z,25.36
2023-05-08T13:56:57.680Z,25.17
2023-05-08T13:59:55.081Z,24.89
2023-05-08T14:02:53.373Z,24.83
2023-05-08T14:05:51.763Z,24.86
2023-05-08T14:08:51.079Z,24.88
2023-05-08T14:11:50.713Z,24.85
2023-05-08T14:14:48.097Z,24.70
2023-05-08T14:17:45.789Z,24.53
2023-05-08T14:20:46.977Z,24.33
2023-05-08T14:23:47.008Z,24.15
2023-05-08T14:26:45.005Z,24.10
2023-05-08T14:29:44.175Z,24.03
2023-05-08T14:32:41.763Z,23.91
2023-05-08T14:35:43.429Z,23.75
2023-05-08T14:38:40.818Z,23.39
2023-05-08T14:41:39.752Z,23.28
2023-05-08T14:44:37.239Z,23.22
2023-05-08T14:47:34.961Z,23.18
2023-05-08T14:50:34.997Z,23.05
2023-05-08T14:53:32.597Z,22.94
2023-05-08T14:56:34.862Z,22.82
2023-05-08T14:59:41.686Z,22.78
2023-05-08T15:02:47.118Z,22.67
2023-05-08T15:05:44.798Z,22.57
2023-05-08T15:08:42.420Z,22.54
2023-05-08T15:11:40.177Z,22.44
2023-05-08T15:14:37.908Z,22.34
2023-05-08T15:17:37.053Z,22.30
2023-05-08T15:20:34.486Z,22.18
2023-05-08T15:23:32.144Z,22.12
2023-05-08T15:26:29.574Z,22.18
2023-05-08T15:29:28.221Z,22.22
2023-05-08T15:32:25.655Z,22.29
2023-05-08T15:35:23.283Z,22.33
2023-05-08T15:38:21.003Z,22.38
2023-05-08T15:41:18.391Z,22.37
2023-05-08T15:44:15.988Z,22.25
2023-05-08T15:47:13.351Z,22.12
2023-05-08T15:50:13.496Z,22.03
2023-05-08T15:53:10.938Z,21.92
2023-05-08T15:56:08.606Z,21.73
2023-05-08T15:59:06.631Z,21.59
2023-05-08T16:02:04.202Z,21.50
2023-05-08T16:05:02.013Z,21.44
2023-05-08T16:07:59.709Z,21.29
2023-05-08T16:10:57.452Z,21.10
2023-05-08T16:13:54.909Z,20.93
2023-05-08T16:16:54.528Z,20.80
2023-05-08T16:19:51.917Z,20.65
2023-05-08T16:22:49.522Z,20.50
2023-05-08T16:25:46.896Z,20.39
2023-05-08T16:28:44.597Z,20.23
2023-05-08T16:31:42.078Z,20.08
2023-05-08T16:34:39.913Z,19.95
2023-05-08T16:37:37.715Z,19.82
2023-05-08T16:40:35.994Z,19.71
2023-05-08T16:43:33.694Z,19.61
2023-05-08T16:46:31.158Z,19.50
2023-05-08T16:49:28.934Z,19.38
2023-05-08T16:52:26.302Z,19.28
2023-05-08T16:55:23.967Z,19.16
2023-05-08T16:58:21.646Z,19.04
2023-05-08T17:01:19.447Z,18.90
2023-05-08T17:04:17.226Z,18.81
2023-05-08T17:07:14.676Z,18.72
2023-05-08T17:10:13.177Z,18.63
2023-05-08T17:13:10.679Z,18.56
2023-05-08T17:16:08.761Z,18.47
2023-05-08T17:19:06.351Z,18.36
2023-05-08T17:22:04.053Z,18.25
2023-05-08T17:25:01.829Z,18.16
2023-05-08T17:27:59.261Z,18.08
2023-05-08T17:30:56.961Z,17.99
2023-05-08T17:33:54.447Z,17.87
2023-05-08T17:36:54.514Z,17.79
2023-05-08T17:39:52.784Z,17.72
2023-05-08T17:42:50.241Z,17.62
2023-05-08T17:45:47.910Z,17.52
2023-05-08T17:48:45.380Z,17.40
2023-05-08T17:51:43.085Z,17.30
2023-05-08T17:54:40.528Z,17.19
2023-05-08T17:57:38.205Z,17.06
2023-05-08T18:00:37.496Z,16.91
2023-05-08T18:03:34.972Z,16.78
2023-05-08T18:06:32.596Z,16.64
2023-05-08T18:09:30.027Z,16.50
2023-05-08T18:12:27.667Z,16.35
2023-05-08T18:15:25.062Z,16.19
2023-05-08T18:18:22.698Z,16.08
2023-05-08T18:21:20.215Z,15.99
2023-05-08T18:24:17.898Z,15.89
2023-05-08T18:27:15.533Z,15.82
2023-05-08T18:30:13.241Z,15.71
2023-05-08T18:33:11.196Z,15.61
2023-05-08T18:36:08.658Z,15.51
2023-05-08T18:39:06.543Z,15.42
2023-05-08T18:42:03.948Z,15.33
2023-05-08T18:45:01.752Z,15.25
2023-05-08T18:47:59.481Z,15.19
2023-05-08T18:50:58.816Z,15.14
2023-05-08T18:53:58.394Z,15.10
2023-05-08T18:56:56.352Z,15.06
2023-05-08T18:59:54.272Z,14.98
2023-05-08T19:02:51.837Z,14.93
2023-05-08T19:05:52.585Z,14.85
2023-05-08T19:08:52.552Z,14.76
2023-05-08T19:11:49.920Z,14.68
2023-05-08T19:14:47.814Z,14.58
2023-05-08T19:17:45.292Z,14.53
2023-05-08T19:20:42.947Z,14.49
2023-05-08T19:23:40.878Z,14.44
2023-05-08T19:26:38.482Z,14.38
2023-05-08T19:29:36.379Z,14.34
2023-05-08T19:32:33.769Z,14.31
2023-05-08T19:35:31.517Z,14.27
2023-05-08T19:38:29.043Z,14.19
2023-05-08T19:41:26.673Z,14.11
2023-05-08T19:44:24.056Z,14.02
2023-05-08T19:47:22.871Z,13.94
2023-05-08T19:50:20.632Z,13.87
2023-05-08T19:53:18.333Z,13.81
2023-05-08T19:56:16.026Z,13.77
2023-05-08T19:59:13.420Z,13.75
2023-05-08T20:02:11.200Z,13.68
2023-05-08T20:08:09.077Z,13.58
2023-05-08T20:11:09.410Z,13.52
2023-05-08T20:14:07.012Z,13.46
2023-05-08T20:17:04.451Z,13.41
2023-05-08T20:20:02.107Z,13.33
2023-05-08T20:22:59.843Z,13.30
2023-05-08T20:25:57.249Z,13.26
2023-05-08T20:28:54.955Z,13.23
2023-05-08T20:31:52.420Z,13.19
2023-05-08T20:34:50.093Z,13.14
2023-05-08T20:37:47.457Z,13.09
2023-05-08T20:40:45.135Z,13.05
2023-05-08T20:43:42.588Z,12.99
2023-05-08T20:46:41.160Z,12.94
2023-05-08T20:49:38.928Z,12.86
2023-05-08T20:52:38.026Z,12.78
2023-05-08T20:55:36.718Z,12.73
2023-05-08T20:58:34.153Z,12.69
2023-05-08T21:01:32.021Z,12.66
2023-05-08T21:04:29.740Z,12.61
2023-05-08T21:07:27.496Z,12.56
2023-05-08T21:10:26.078Z,12.50
2023-05-08T21:13:25.242Z,12.41
2023-05-08T21:16:24.838Z,12.31
2023-05-08T21:19:23.814Z,12.22
2023-05-08T21:22:21.517Z,12.14
2023-05-08T21:25:19.507Z,12.06
2023-05-08T21:28:16.968Z,11.99
2023-05-08T21:31:14.733Z,11.89
2023-05-08T21:34:12.426Z,11.82
2023-05-08T21:37:11.483Z,11.75
2023-05-08T21:40:09.613Z,11.66
2023-05-08T21:43:07.201Z,11.53
2023-05-08T21:46:04.654Z,11.43
2023-05-08T21:49:02.259Z,11.35
2023-05-08T21:51:59.695Z,11.26
2023-05-08T21:54:57.262Z,11.18
2023-05-08T21:57:54.825Z,11.11
2023-05-08T22:00:52.454Z,11.03
2023-05-08T22:03:50.292Z,10.93
2023-05-08T22:06:47.882Z,10.86
2023-05-08T22:09:46.133Z,10.79
2023-05-08T22:12:44.022Z,10.75
2023-05-08T22:15:41.845Z,10.68
2023-05-08T22:18:39.285Z,10.61
2023-05-08T22:21:36.984Z,10.56
2023-05-08T22:24:34.367Z,10.49
2023-05-08T22:27:32.111Z,10.43
2023-05-08T22:30:30.097Z,10.37
2023-05-08T22:33:29.690Z,10.30
2023-05-08T22:36:28.117Z,10.26
2023-05-08T22:39:26.372Z,10.19
2023-05-08T22:42:23.926Z,10.12
2023-05-08T22:45:21.570Z,10.06
2023-05-08T22:48:19.000Z,9.99
2023-05-08T22:51:16.698Z,9.95
2023-05-08T22:54:14.058Z,9.90
2023-05-08T22:57:11.722Z,9.87
2023-05-08T23:00:09.187Z,9.83
2023-05-08T23:03:06.944Z,9.77
2023-05-08T23:06:04.452Z,9.72
2023-05-08T23:09:02.208Z,9.70
2023-05-08T23:11:59.816Z,9.66
2023-05-08T23:14:57.188Z,9.64
2023-05-08T23:17:54.885Z,9.62
2023-05-08T23:20:52.287Z,9.56
2023-05-08T23:23:50.085Z,9.52
2023-05-08T23:26:48.584Z,9.48
2023-05-08T23:29:46.206Z,9.44
2023-05-08T23:32:43.658Z,9.39
2023-05-08T23:35:41.317Z,9.35
2023-05-08T23:38:39.069Z,9.30
2023-05-08T23:41:36.814Z,9.26
2023-05-08T23:44:34.457Z,9.21
2023-05-08T23:47:31.861Z,9.17
2023-05-08T23:50:29.590Z,9.10
2023-05-08T23:53:27.002Z,9.07
2023-05-08T23:56:24.994Z,9.03
2023-05-08T23:59:22.699Z,9.00
